createdAt,value
2023-05-10T00:00:00.635Z,68.7
2023-05-10T00:01:00.578Z,68.6
2023-05-10T00:02:00.584Z,68.6
2023-05-10T00:03:00.626Z,68.6
2023-05-10T00:04:00.595Z,68.6
2023-05-10T00:05:00.955Z,68.7
2023-05-10T00:06:00.555Z,68.8
2023-05-10T00:07:00.577Z,68.8
2023-05-10T00:08:00.635Z,68.8
2023-05-10T00:09:00.548Z,68.9
2023-05-10T00:10:00.558Z,68.9
2023-05-10T00:11:00.656Z,68.8
2023-05-10T00:12:00.555Z,68.8
2023-05-10T00:13:00.644Z,68.8
2023-05-10T00:14:00.562Z,68.8
2023-05-10T00:15:00.597Z,68.8
2023-05-10T00:16:00.663Z,68.9
2023-05-10T00:17:00.722Z,68.9
2023-05-10T00:18:00.623Z,68.9
2023-05-10T00:19:00.636Z,68.8
2023-05-10T00:20:00.626Z,68.8
2023-05-10T00:21:00.568Z,68.7
2023-05-10T00:22:00.582Z,68.6
2023-05-10T00:23:00.552Z,68.6
2023-05-10T00:24:00.582Z,68.7
2023-05-10T00:25:00.851Z,68.8
2023-05-10T00:26:00.576Z,68.8
2023-05-10T00:27:00.588Z,68.9
2023-05-10T00:28:00.543Z,69.0
2023-05-10T00:29:00.582Z,69.0
2023-05-10T00:30:00.657Z,69.0
2023-05-10T00:31:00.542Z,68.9
2023-05-10T00:32:00.594Z,68.8
2023-05-10T00:33:00.605Z,68.9
2023-05-10T00:34:00.566Z,68.9
2023-05-10T00:35:00.545Z,68.9
2023-05-10T00:36:00.547Z,69.0
2023-05-10T00:37:00.579Z,69.0
2023-05-10T00:38:00.606Z,69.0
2023-05-10T00:39:00.538Z,69.0
2023-05-10T00:40:00.760Z,69.0
2023-05-10T00:41:00.715Z,68.8
2023-05-10T00:42:00.560Z,68.8
2023-05-10T00:43:00.557Z,68.7
2023-05-10T00:44:00.581Z,68.8
2023-05-10T00:45:00.548Z,68.7
2023-05-10T00:46:00.638Z,68.7
2023-05-10T00:47:00.584Z,68.6
2023-05-10T00:48:02.233Z,68.6
2023-05-10T00:49:00.806Z,68.5
2023-05-10T00:50:00.622Z,68.5
2023-05-10T00:51:01.158Z,68.4
2023-05-10T00:52:00.642Z,68.4
2023-05-10T00:53:00.942Z,68.4
2023-05-10T00:54:00.653Z,68.4
2023-05-10T00:55:00.599Z,68.5
2023-05-10T00:56:01.023Z,68.4
2023-05-10T00:57:00.570Z,68.4
2023-05-10T00:58:00.597Z,68.4
2023-05-10T00:59:00.974Z,68.3
2023-05-10T01:00:01.391Z,68.2
2023-05-10T01:01:01.357Z,68.1
2023-05-10T01:02:01.319Z,68.1
2023-05-10T01:03:00.728Z,68.1
2023-05-10T01:04:00.580Z,68.0
2023-05-10T01:05:01.887Z,68.0
2023-05-10T01:06:00.590Z,68.0
2023-05-10T01:07:00.565Z,68.0
2023-05-10T01:08:00.661Z,67.9
2023-05-10T01:09:00.547Z,67.9
2023-05-10T01:10:00.787Z,67.8
2023-05-10T01:11:00.628Z,67.7
2023-05-10T01:12:01.006Z,67.5
2023-05-10T01:13:00.790Z,67.6
2023-05-10T01:14:01.319Z,67.6
2023-05-10T01:15:01.140Z,67.7
2023-05-10T01:16:00.692Z,67.7
2023-05-10T01:17:00.840Z,67.7
2023-05-10T01:18:01.671Z,67.6
2023-05-10T01:19:00.602Z,67.7
2023-05-10T01:20:00.612Z,67.6
2023-05-10T01:21:10.438Z,67.4
2023-05-10T01:22:05.357Z,67.3
2023-05-10T01:23:00.525Z,67.3
2023-05-10T01:24:08.121Z,67.4
2023-05-10T01:25:10.451Z,67.3
2023-05-10T01:26:10.441Z,67.3
2023-05-10T01:27:07.925Z,67.3
2023-05-10T01:28:10.419Z,67.3
2023-05-10T01:29:10.490Z,67.3
2023-05-10T01:30:15.846Z,67.3
2023-05-10T01:31:00.571Z,67.1
2023-05-10T01:32:03.945Z,67.0
2023-05-10T01:33:09.951Z,67.2
2023-05-10T01:34:06.862Z,67.3
2023-05-10T01:35:10.451Z,67.4
2023-05-10T01:36:00.555Z,67.4
2023-05-10T01:37:05.953Z,67.4
2023-05-10T01:38:03.847Z,67.3
2023-05-10T01:39:10.419Z,67.4
2023-05-10T01:40:04.882Z,67.3
2023-05-10T01:41:10.455Z,67.1
2023-05-10T01:42:07.620Z,67.1
2023-05-10T01:43:02.662Z,67.1
2023-05-10T01:44:05.067Z,67.0
2023-05-10T01:45:00.549Z,67.0
2023-05-10T01:46:02.249Z,67.0
2023-05-10T01:47:05.841Z,67.0
2023-05-10T01:48:05.820Z,67.1
2023-05-10T01:49:02.380Z,67.1
2023-05-10T01:50:02.549Z,67.1
2023-05-10T01:51:00.589Z,67.0
2023-05-10T01:52:03.952Z,67.0
2023-05-10T01:53:01.746Z,67.1
2023-05-10T01:54:02.074Z,67.0
2023-05-10T01:55:02.316Z,67.1
2023-05-10T01:56:01.393Z,67.2
2023-05-10T01:57:03.641Z,67.2
2023-05-10T01:58:04.295Z,67.2
2023-05-10T01:59:05.099Z,67.2
2023-05-10T02:00:01.666Z,67.1
2023-05-10T02:01:03.222Z,67.0
2023-05-10T02:02:01.227Z,67.0
2023-05-10T02:03:03.912Z,67.0
2023-05-10T02:04:01.694Z,67.1
2023-05-10T02:05:00.849Z,67.0
2023-05-10T02:06:01.381Z,67.0
2023-05-10T02:07:00.705Z,67.0
2023-05-10T02:08:01.640Z,66.9
2023-05-10T02:09:01.302Z,66.9
2023-05-10T02:10:01.959Z,66.9
2023-05-10T02:11:01.308Z,66.9
2023-05-10T02:12:02.365Z,66.8
2023-05-10T02:13:01.846Z,66.9
2023-05-10T02:14:01.297Z,66.8
2023-05-10T02:15:02.214Z,66.9
2023-05-10T02:16:01.731Z,66.9
2023-05-10T02:17:01.442Z,66.9
2023-05-10T02:18:02.353Z,66.9
2023-05-10T02:19:01.338Z,66.8
2023-05-10T02:20:01.368Z,66.9
2023-05-10T02:21:01.701Z,66.6
2023-05-10T02:22:01.115Z,66.6
2023-05-10T02:23:01.889Z,66.6
2023-05-10T02:24:01.673Z,66.6
2023-05-10T02:25:00.875Z,66.6
2023-05-10T02:26:01.589Z,66.7
2023-05-10T02:27:02.330Z,66.7
2023-05-10T02:28:02.107Z,66.7
2023-05-10T02:29:01.750Z,66.7
2023-05-10T02:30:01.143Z,66.6
2023-05-10T02:31:00.900Z,66.6
2023-05-10T02:32:01.527Z,66.6
2023-05-10T02:33:01.714Z,66.7
2023-05-10T02:34:01.539Z,66.6
2023-05-10T02:35:01.573Z,66.7
2023-05-10T02:36:01.540Z,66.7
2023-05-10T02:37:02.468Z,66.7
2023-05-10T02:38:00.886Z,66.7
2023-05-10T02:39:01.536Z,66.6
2023-05-10T02:40:01.329Z,66.6
2023-05-10T02:41:01.585Z,66.5
2023-05-10T02:42:00.680Z,66.4
2023-05-10T02:43:02.358Z,66.5
2023-05-10T02:44:02.468Z,66.5
2023-05-10T02:45:01.776Z,66.5
2023-05-10T02:46:00.735Z,66.6
2023-05-10T02:47:00.564Z,66.6
2023-05-10T02:48:00.667Z,66.6
2023-05-10T02:49:00.880Z,66.6
2023-05-10T02:50:00.595Z,66.6
2023-05-10T02:51:04.552Z,66.5
2023-05-10T02:52:04.876Z,66.4
2023-05-10T02:53:01.024Z,66.4
2023-05-10T02:54:04.012Z,66.6
2023-05-10T02:55:01.066Z,66.7
2023-05-10T02:56:04.147Z,66.8
2023-05-10T02:57:03.898Z,67.0
2023-05-10T02:58:01.672Z,67.1
2023-05-10T02:59:00.577Z,67.1
2023-05-10T03:00:01.453Z,67.2
2023-05-10T03:01:00.650Z,67.1
2023-05-10T03:02:01.151Z,67.3
2023-05-10T03:03:00.631Z,67.3
2023-05-10T03:04:00.556Z,67.3
2023-05-10T03:05:00.748Z,67.4
2023-05-10T03:06:00.639Z,67.5
2023-05-10T03:07:00.870Z,67.4
2023-05-10T03:08:00.620Z,67.4
2023-05-10T03:09:01.593Z,67.3
2023-05-10T03:10:01.120Z,67.2
2023-05-10T03:11:01.581Z,67.0
2023-05-10T03:12:10.448Z,67.1
2023-05-10T03:13:00.578Z,67.0
2023-05-10T03:14:00.605Z,67.1
2023-05-10T03:15:01.570Z,67.0
2023-05-10T03:16:10.570Z,67.1
2023-05-10T03:17:04.591Z,67.1
2023-05-10T03:18:03.448Z,67.0
2023-05-10T03:19:10.513Z,66.9
2023-05-10T03:20:06.565Z,67.0
2023-05-10T03:21:02.709Z,67.0
2023-05-10T03:22:06.710Z,67.0
2023-05-10T03:23:04.265Z,67.2
2023-05-10T03:24:06.900Z,67.3
2023-05-10T03:25:04.581Z,67.6
2023-05-10T03:26:01.535Z,67.9
2023-05-10T03:27:01.168Z,67.8
2023-05-10T03:28:01.673Z,67.9
2023-05-10T03:29:01.069Z,67.8
2023-05-10T03:30:01.628Z,68.0
2023-05-10T03:31:01.331Z,67.9
2023-05-10T03:32:00.645Z,68.2
2023-05-10T03:33:04.404Z,68.5
2023-05-10T03:34:00.586Z,69.0
2023-05-10T03:35:00.770Z,68.8
2023-05-10T03:36:00.634Z,69.1
2023-05-10T03:37:00.623Z,69.1
2023-05-10T03:38:01.003Z,69.4
2023-05-10T03:39:00.576Z,69.5
2023-05-10T03:40:00.849Z,69.2
2023-05-10T03:41:00.554Z,69.3
2023-05-10T03:42:00.563Z,69.3
2023-05-10T03:43:00.675Z,69.0
2023-05-10T03:44:00.562Z,68.3
2023-05-10T03:45:00.544Z,67.7
2023-05-10T03:46:02.364Z,66.9
2023-05-10T03:47:00.802Z,66.2
2023-05-10T03:48:00.601Z,65.9
2023-05-10T03:49:00.592Z,64.2
2023-05-10T03:50:00.597Z,63.9
2023-05-10T03:51:00.641Z,63.5
2023-05-10T03:52:00.537Z,63.3
2023-05-10T03:53:00.584Z,62.9
2023-05-10T03:54:00.546Z,62.9
2023-05-10T03:55:00.591Z,62.3
2023-05-10T03:56:00.564Z,62.2
2023-05-10T03:57:00.596Z,62.4
2023-05-10T03:58:00.618Z,62.2
2023-05-10T03:59:00.525Z,62.4
2023-05-10T04:00:00.734Z,62.3
2023-05-10T04:01:00.554Z,62.4
2023-05-10T04:02:00.563Z,61.8
2023-05-10T04:03:00.633Z,61.8
2023-05-10T04:04:00.742Z,61.4
2023-05-10T04:05:00.563Z,61.4
2023-05-10T04:06:00.962Z,61.2
2023-05-10T04:07:00.575Z,61.0
2023-05-10T04:08:00.555Z,61.1
2023-05-10T04:09:00.593Z,61.1
2023-05-10T04:10:00.588Z,61.0
2023-05-10T04:11:08.511Z,61.3
2023-05-10T04:12:00.553Z,61.1
2023-05-10T04:13:00.689Z,60.7
2023-05-10T04:14:00.600Z,60.5
2023-05-10T04:15:00.569Z,60.3
2023-05-10T04:16:00.854Z,59.9
2023-05-10T04:17:00.599Z,59.2
2023-05-10T04:18:00.619Z,57.8
2023-05-10T04:19:00.618Z,57.9
2023-05-10T04:20:00.637Z,58.3
2023-05-10T04:21:00.773Z,57.3
2023-05-10T04:22:01.941Z,57.3
2023-05-10T04:23:00.545Z,56.1
2023-05-10T04:24:00.565Z,55.7
2023-05-10T04:25:00.570Z,54.8
2023-05-10T04:26:01.348Z,53.3
2023-05-10T04:27:00.551Z,53.1
2023-05-10T04:28:00.558Z,52.7
2023-05-10T04:29:00.625Z,51.7
2023-05-10T04:30:00.668Z,52.2
2023-05-10T04:31:08.729Z,52.8
2023-05-10T04:32:00.649Z,51.9
2023-05-10T04:33:00.929Z,51.2
2023-05-10T04:34:00.553Z,51.7
2023-05-10T04:35:00.715Z,51.7
2023-05-10T04:36:00.588Z,51.1
2023-05-10T04:37:00.560Z,51.4
2023-05-10T04:38:00.641Z,51.8
2023-05-10T04:39:00.623Z,51.1
2023-05-10T04:40:00.618Z,51.5
2023-05-10T04:41:08.429Z,51.6
2023-05-10T04:42:01.069Z,50.9
2023-05-10T04:43:00.588Z,50.9
2023-05-10T04:44:00.539Z,51.3
2023-05-10T04:45:00.589Z,51.1
2023-05-10T04:46:00.911Z,51.9
2023-05-10T04:47:00.768Z,52.1
2023-05-10T04:48:00.571Z,52.1
2023-05-10T04:49:00.545Z,51.6
2023-05-10T04:50:00.597Z,51.4
2023-05-10T04:51:00.555Z,51.1
2023-05-10T04:52:00.609Z,50.6
2023-05-10T04:53:00.856Z,50.1
2023-05-10T04:55:00.545Z,50.0
2023-05-10T04:56:00.624Z,49.4
2023-05-10T04:57:00.600Z,49.7
2023-05-10T04:58:00.567Z,50.2
2023-05-10T04:59:00.576Z,50.2
2023-05-10T05:00:00.594Z,49.5
2023-05-10T05:01:07.723Z,49.3
2023-05-10T05:02:00.635Z,49.3
2023-05-10T05:03:00.651Z,49.1
2023-05-10T05:04:00.789Z,48.9
2023-05-10T05:05:00.553Z,49.8
2023-05-10T05:06:00.574Z,49.7
2023-05-10T05:07:00.559Z,49.5
2023-05-10T05:08:00.557Z,49.5
2023-05-10T05:09:00.555Z,49.8
2023-05-10T05:10:00.715Z,49.5
2023-05-10T05:11:00.733Z,49.3
2023-05-10T05:12:00.566Z,49.2
2023-05-10T05:13:00.595Z,49.4
2023-05-10T05:14:00.862Z,48.7
2023-05-10T05:15:01.063Z,48.0
2023-05-10T05:16:01.338Z,48.0
2023-05-10T05:17:00.715Z,48.0
2023-05-10T05:18:00.698Z,48.4
2023-05-10T05:19:00.698Z,48.0
2023-05-10T05:20:00.701Z,47.4
2023-05-10T05:21:00.725Z,47.6
2023-05-10T05:22:00.664Z,46.4
2023-05-10T05:23:00.792Z,47.0
2023-05-10T05:24:00.545Z,44.9
2023-05-10T05:25:00.655Z,45.1
2023-05-10T05:26:00.604Z,44.4
2023-05-10T05:27:00.702Z,43.3
2023-05-10T05:28:00.619Z,43.1
2023-05-10T05:29:00.575Z,42.6
2023-05-10T05:30:00.614Z,41.6
2023-05-10T05:31:00.636Z,42.8
2023-05-10T05:32:00.637Z,41.7
2023-05-10T05:33:00.698Z,42.3
2023-05-10T05:34:00.613Z,40.9
2023-05-10T05:35:00.655Z,40.4
2023-05-10T05:36:01.391Z,39.2
2023-05-10T05:37:00.604Z,39.8
2023-05-10T05:38:00.661Z,40.1
2023-05-10T05:39:00.589Z,39.6
2023-05-10T05:40:00.821Z,39.1
2023-05-10T05:41:00.610Z,38.3
2023-05-10T05:42:00.549Z,37.9
2023-05-10T05:43:00.553Z,37.8
2023-05-10T05:44:00.572Z,37.0
2023-05-10T05:45:00.590Z,37.5
2023-05-10T05:46:00.582Z,36.6
2023-05-10T05:47:00.862Z,36.1
2023-05-10T05:48:00.794Z,35.4
2023-05-10T05:49:00.582Z,36.0
2023-05-10T05:50:00.564Z,35.6
2023-05-10T05:51:00.528Z,35.4
2023-05-10T05:52:01.195Z,35.6
2023-05-10T05:53:00.527Z,35.1
2023-05-10T05:54:00.562Z,35.3
2023-05-10T05:55:00.542Z,35.2
2023-05-10T05:56:00.577Z,35.5
2023-05-10T05:57:01.533Z,35.3
2023-05-10T05:58:00.788Z,35.2
2023-05-10T05:59:00.578Z,35.6
2023-05-10T06:00:00.573Z,35.1
2023-05-10T06:01:00.639Z,35.4
2023-05-10T06:02:00.612Z,35.1
2023-05-10T06:03:00.708Z,34.3
2023-05-10T06:04:00.641Z,35.3
2023-05-10T06:05:00.539Z,34.9
2023-05-10T06:06:00.543Z,34.7
2023-05-10T06:07:00.601Z,34.9
2023-05-10T06:08:00.532Z,34.7
2023-05-10T06:09:00.627Z,33.8
2023-05-10T06:10:00.810Z,33.9
2023-05-10T06:11:00.820Z,34.2
2023-05-10T06:12:00.567Z,32.5
2023-05-10T06:13:00.612Z,32.5
2023-05-10T06:14:00.944Z,32.9
2023-05-10T06:15:00.575Z,32.1
2023-05-10T06:16:00.966Z,33.8
2023-05-10T06:17:00.647Z,33.1
2023-05-10T06:18:00.616Z,33.2
2023-05-10T06:19:00.656Z,31.6
2023-05-10T06:20:00.623Z,31.0
2023-05-10T06:21:00.554Z,30.9
2023-05-10T06:22:00.599Z,30.8
2023-05-10T06:23:00.562Z,30.5
2023-05-10T06:24:00.551Z,30.1
2023-05-10T06:25:00.551Z,29.9
2023-05-10T06:26:00.565Z,30.1
2023-05-10T06:27:00.582Z,30.3
2023-05-10T06:28:00.559Z,29.7
2023-05-10T06:29:00.566Z,30.1
2023-05-10T06:30:11.620Z,29.5
2023-05-10T06:31:00.578Z,29.4
2023-05-10T06:32:00.566Z,29.4
2023-05-10T06:33:00.614Z,29.3
2023-05-10T06:34:00.548Z,29.9
2023-05-10T06:35:00.619Z,29.0
2023-05-10T06:36:00.591Z,30.1
2023-05-10T06:37:00.548Z,29.9
2023-05-10T06:38:00.682Z,28.3
2023-05-10T06:39:00.532Z,29.5
2023-05-10T06:40:00.688Z,28.7
2023-05-10T06:41:00.699Z,28.5
2023-05-10T06:42:00.568Z,28.4
2023-05-10T06:43:00.548Z,28.4
2023-05-10T06:44:00.571Z,27.4
2023-05-10T06:45:00.544Z,28.0
2023-05-10T06:46:00.626Z,28.1
2023-05-10T06:47:00.553Z,27.3
2023-05-10T06:48:00.579Z,27.4
2023-05-10T06:49:00.558Z,27.9
2023-05-10T06:50:00.570Z,28.1
2023-05-10T06:51:00.709Z,27.7
2023-05-10T06:52:00.611Z,27.0
2023-05-10T06:53:00.981Z,25.7
2023-05-10T06:54:00.544Z,27.4
2023-05-10T06:55:00.660Z,26.6
2023-05-10T06:56:00.568Z,26.0
2023-05-10T06:57:01.833Z,25.7
2023-05-10T06:58:00.568Z,25.6
2023-05-10T06:59:00.610Z,25.6
2023-05-10T07:00:00.700Z,25.3
2023-05-10T07:01:02.264Z,25.7
2023-05-10T07:02:00.581Z,24.6
2023-05-10T07:03:00.678Z,24.6
2023-05-10T07:04:00.538Z,25.6
2023-05-10T07:05:02.853Z,26.0
2023-05-10T07:06:01.502Z,24.6
2023-05-10T07:07:00.534Z,24.2
2023-05-10T07:08:00.602Z,24.6
2023-05-10T07:09:00.594Z,25.6
2023-05-10T07:10:00.613Z,23.9
2023-05-10T07:11:01.270Z,25.0
2023-05-10T07:12:00.548Z,23.6
2023-05-10T07:13:00.677Z,23.2
2023-05-10T07:14:00.609Z,23.6
2023-05-10T07:15:00.568Z,22.9
2023-05-10T07:16:00.660Z,23.2
2023-05-10T07:17:00.574Z,23.9
2023-05-10T07:18:00.773Z,24.2
2023-05-10T07:19:00.556Z,24.1
2023-05-10T07:20:00.980Z,23.5
2023-05-10T07:21:00.585Z,24.1
2023-05-10T07:22:00.605Z,23.0
2023-05-10T07:23:00.621Z,23.3
2023-05-10T07:24:00.574Z,23.0
2023-05-10T07:25:00.600Z,23.2
2023-05-10T07:26:00.582Z,23.5
2023-05-10T07:27:00.573Z,23.5
2023-05-10T07:28:00.563Z,22.7
2023-05-10T07:29:00.564Z,22.0
2023-05-10T07:30:00.697Z,21.4
2023-05-10T07:31:00.556Z,22.2
2023-05-10T07:32:00.580Z,21.6
2023-05-10T07:33:00.636Z,21.4
2023-05-10T07:34:00.578Z,21.1
2023-05-10T07:35:00.573Z,22.0
2023-05-10T07:36:00.597Z,21.6
2023-05-10T07:37:00.670Z,21.9
2023-05-10T07:38:00.610Z,21.8
2023-05-10T07:39:00.725Z,22.5
2023-05-10T07:40:00.589Z,22.3
2023-05-10T07:41:00.566Z,22.0
2023-05-10T07:42:00.553Z,21.9
2023-05-10T07:43:00.567Z,21.9
2023-05-10T07:44:00.564Z,22.1
2023-05-10T07:45:00.536Z,22.0
2023-05-10T07:46:00.606Z,22.0
2023-05-10T07:47:00.595Z,22.1
2023-05-10T07:48:00.619Z,21.6
2023-05-10T07:49:00.618Z,21.8
2023-05-10T07:50:00.700Z,22.6
2023-05-10T07:51:00.565Z,22.3
2023-05-10T07:52:00.574Z,21.1
2023-05-10T07:53:00.563Z,20.9
2023-05-10T07:54:00.588Z,20.8
2023-05-10T07:55:00.524Z,20.9
2023-05-10T07:56:10.429Z,20.7
2023-05-10T07:57:00.578Z,20.6
2023-05-10T07:58:00.606Z,20.3
2023-05-10T07:59:01.506Z,20.1
2023-05-10T08:00:00.660Z,19.9
2023-05-10T08:01:00.619Z,20.3
2023-05-10T08:02:00.569Z,20.0
2023-05-10T08:03:00.832Z,19.9
2023-05-10T08:04:01.091Z,19.8
2023-05-10T08:05:00.623Z,20.1
2023-05-10T08:06:00.548Z,20.2
2023-05-10T08:07:00.523Z,20.2
2023-05-10T08:08:00.526Z,20.5
2023-05-10T08:09:00.630Z,19.9
2023-05-10T08:10:00.814Z,19.5
2023-05-10T08:11:00.577Z,19.8
2023-05-10T08:12:00.545Z,19.0
2023-05-10T08:13:00.578Z,19.3
2023-05-10T08:14:00.552Z,19.3
2023-05-10T08:15:00.561Z,18.4
2023-05-10T08:16:00.643Z,18.4
2023-05-10T08:17:00.535Z,18.2
2023-05-10T08:18:00.580Z,18.3
2023-05-10T08:19:00.618Z,18.8
2023-05-10T08:20:00.994Z,18.7
2023-05-10T08:21:00.541Z,19.2
2023-05-10T08:22:00.572Z,18.5
2023-05-10T08:23:00.551Z,17.7
2023-05-10T08:24:00.560Z,17.9
2023-05-10T08:25:00.591Z,18.2
2023-05-10T08:26:00.566Z,18.2
2023-05-10T08:27:00.547Z,17.0
2023-05-10T08:28:00.535Z,17.3
2023-05-10T08:29:00.527Z,17.9
2023-05-10T08:30:00.564Z,18.0
2023-05-10T08:31:00.755Z,17.6
2023-05-10T08:32:00.545Z,17.8
2023-05-10T08:33:00.757Z,18.4
2023-05-10T08:34:00.544Z,18.6
2023-05-10T08:35:00.541Z,19.8
2023-05-10T08:36:00.639Z,19.9
2023-05-10T08:37:00.594Z,20.2
2023-05-10T08:38:00.806Z,20.8
2023-05-10T08:39:00.625Z,20.3
2023-05-10T08:40:00.607Z,19.4
2023-05-10T08:41:01.811Z,18.8
2023-05-10T08:42:02.011Z,18.1
2023-05-10T08:43:04.508Z,18.0
2023-05-10T08:44:03.978Z,18.5
2023-05-10T08:45:01.713Z,18.5
2023-05-10T08:46:01.120Z,18.4
2023-05-10T08:47:02.394Z,17.7
2023-05-10T08:48:01.801Z,18.1
2023-05-10T08:49:01.951Z,18.3
2023-05-10T08:50:02.545Z,17.9
2023-05-10T08:51:01.094Z,18.0
2023-05-10T08:52:02.968Z,17.8
2023-05-10T08:53:03.693Z,17.7
2023-05-10T08:54:01.121Z,17.5
2023-05-10T08:55:00.664Z,17.5
2023-05-10T08:56:02.170Z,17.4
2023-05-10T08:57:00.762Z,17.6
2023-05-10T08:58:00.616Z,18.1
2023-05-10T08:59:00.596Z,18.7
2023-05-10T09:00:00.830Z,18.7
2023-05-10T09:01:00.785Z,18.4
2023-05-10T09:02:01.414Z,18.2
2023-05-10T09:03:01.523Z,17.3
2023-05-10T09:04:00.690Z,17.3
2023-05-10T09:05:00.693Z,17.4
2023-05-10T09:06:00.557Z,17.1
2023-05-10T09:07:00.689Z,17.4
2023-05-10T09:08:00.554Z,17.3
2023-05-10T09:09:01.247Z,17.3
2023-05-10T09:10:00.645Z,17.0
2023-05-10T09:11:01.125Z,17.2
2023-05-10T09:12:00.638Z,16.2
2023-05-10T09:13:00.889Z,16.9
2023-05-10T09:14:01.210Z,16.7
2023-05-10T09:15:01.788Z,16.6
2023-05-10T09:16:07.140Z,16.1
2023-05-10T09:17:00.654Z,16.3
2023-05-10T09:18:00.610Z,16.6
2023-05-10T09:19:00.755Z,17.1
2023-05-10T09:20:01.262Z,16.7
2023-05-10T09:21:00.573Z,17.0
2023-05-10T09:22:00.572Z,16.7
2023-05-10T09:23:00.593Z,16.1
2023-05-10T09:24:02.852Z,16.1
2023-05-10T09:25:09.593Z,16.5
2023-05-10T09:26:02.552Z,16.2
2023-05-10T09:27:01.488Z,16.5
2023-05-10T09:28:00.575Z,16.3
2023-05-10T09:29:00.591Z,16.5
2023-05-10T09:30:00.832Z,16.5
2023-05-10T09:31:00.792Z,16.3
2023-05-10T09:32:00.546Z,15.5
2023-05-10T09:33:00.939Z,15.3
2023-05-10T09:34:00.575Z,15.0
2023-05-10T09:35:05.877Z,14.9
2023-05-10T09:36:06.320Z,14.5
2023-05-10T09:37:01.910Z,14.7
2023-05-10T09:38:04.030Z,14.8
2023-05-10T09:39:00.557Z,14.9
2023-05-10T09:40:00.553Z,15.1
2023-05-10T09:41:00.528Z,15.5
2023-05-10T09:42:02.215Z,15.0
2023-05-10T09:43:01.788Z,15.2
2023-05-10T09:44:00.552Z,15.5
2023-05-10T09:45:02.594Z,15.1
2023-05-10T09:46:08.344Z,14.8
2023-05-10T09:47:02.284Z,15.2
2023-05-10T09:48:01.318Z,14.8
2023-05-10T09:49:00.633Z,15.3
2023-05-10T09:51:00.547Z,15.9
2023-05-10T09:52:04.767Z,15.7
2023-05-10T09:53:02.138Z,15.5
2023-05-10T09:54:10.429Z,15.5
2023-05-10T09:55:00.543Z,15.3
2023-05-10T09:56:00.578Z,15.1
2023-05-10T09:57:01.169Z,15.3
2023-05-10T09:58:01.214Z,15.5
2023-05-10T09:59:03.306Z,15.4
2023-05-10T10:00:00.587Z,15.6
2023-05-10T10:01:00.749Z,15.5
2023-05-10T10:02:00.736Z,15.5
2023-05-10T10:03:00.642Z,15.6
2023-05-10T10:04:09.071Z,15.7
2023-05-10T10:05:01.014Z,15.8
2023-05-10T10:06:00.549Z,15.8
2023-05-10T10:07:01.569Z,16.1
2023-05-10T10:08:02.829Z,15.3
2023-05-10T10:09:00.631Z,15.1
2023-05-10T10:10:00.687Z,15.3
2023-05-10T10:11:00.739Z,15.5
2023-05-10T10:12:01.280Z,15.9
2023-05-10T10:13:01.081Z,16.1
2023-05-10T10:14:00.665Z,15.9
2023-05-10T10:15:00.719Z,16.1
2023-05-10T10:16:00.701Z,16.3
2023-05-10T10:17:08.062Z,16.0
2023-05-10T10:18:01.031Z,16.6
2023-05-10T10:19:00.664Z,16.8
2023-05-10T10:20:02.454Z,18.8
2023-05-10T10:21:01.388Z,20.0
2023-05-10T10:22:00.568Z,20.2
2023-05-10T10:23:00.530Z,20.6
2023-05-10T10:24:00.982Z,20.0
2023-05-10T10:25:00.724Z,20.2
2023-05-10T10:26:01.744Z,20.1
2023-05-10T10:27:09.081Z,20.2
2023-05-10T10:28:09.183Z,20.2
2023-05-10T10:29:01.585Z,20.1
2023-05-10T10:30:10.462Z,19.7
2023-05-10T10:31:03.254Z,19.5
2023-05-10T10:32:01.614Z,18.8
2023-05-10T10:33:24.363Z,18.1
2023-05-10T10:34:05.353Z,17.8
2023-05-10T10:35:00.639Z,17.7
2023-05-10T10:36:01.868Z,17.7
2023-05-10T10:37:04.410Z,17.9
2023-05-10T10:38:00.689Z,17.5
2023-05-10T10:39:01.633Z,17.7
2023-05-10T10:40:00.580Z,17.4
2023-05-10T10:41:02.486Z,17.3
2023-05-10T10:42:00.538Z,17.6
2023-05-10T10:43:10.442Z,17.6
2023-05-10T10:44:10.442Z,17.6
2023-05-10T10:45:10.424Z,17.3
2023-05-10T10:46:10.434Z,17.5
2023-05-10T10:47:01.625Z,17.0
2023-05-10T10:48:10.437Z,17.4
2023-05-10T10:49:10.424Z,17.8
2023-05-10T10:50:00.546Z,18.7
2023-05-10T10:51:00.599Z,19.2
2023-05-10T10:52:10.428Z,19.4
2023-05-10T10:53:10.322Z,19.5
2023-05-10T10:54:08.737Z,20.1
2023-05-10T10:55:08.317Z,20.8
2023-05-10T10:56:08.777Z,21.0
2023-05-10T10:57:10.454Z,21.4
2023-05-10T10:58:00.538Z,21.4
2023-05-10T10:59:00.586Z,21.8
2023-05-10T11:00:10.428Z,21.5
2023-05-10T11:01:10.475Z,21.1
2023-05-10T11:02:00.538Z,21.0
2023-05-10T11:03:10.471Z,20.7
2023-05-10T11:04:00.617Z,21.1
2023-05-10T11:05:10.443Z,21.5
2023-05-10T11:06:00.539Z,22.2
2023-05-10T11:07:10.416Z,23.4
2023-05-10T11:08:06.426Z,24.5
2023-05-10T11:09:08.524Z,25.0
2023-05-10T11:10:04.199Z,25.7
2023-05-10T11:11:00.570Z,26.0
2023-05-10T11:12:08.118Z,28.0
2023-05-10T11:13:01.200Z,30.3
2023-05-10T11:14:04.473Z,30.4
2023-05-10T11:15:00.577Z,30.4
2023-05-10T11:16:10.556Z,31.0
2023-05-10T11:17:01.450Z,32.3
2023-05-10T11:18:10.455Z,33.2
2023-05-10T11:19:04.761Z,33.4
2023-05-10T11:20:08.806Z,35.1
2023-05-10T11:21:01.289Z,34.9
2023-05-10T11:22:03.856Z,34.7
2023-05-10T11:23:10.430Z,34.9
2023-05-10T11:24:01.206Z,35.0
2023-05-10T11:25:00.967Z,34.9
2023-05-10T11:26:00.795Z,33.5
2023-05-10T11:27:00.693Z,32.5
2023-05-10T11:28:02.638Z,33.0
2023-05-10T11:29:00.699Z,33.3
2023-05-10T11:30:00.575Z,33.5
2023-05-10T11:31:00.715Z,32.4
2023-05-10T11:32:00.661Z,33.4
2023-05-10T11:33:00.596Z,34.1
2023-05-10T11:34:00.666Z,34.1
2023-05-10T11:35:06.373Z,33.2
2023-05-10T11:36:00.617Z,33.1
2023-05-10T11:37:00.917Z,33.6
2023-05-10T11:38:00.526Z,33.7
2023-05-10T11:39:00.647Z,34.2
2023-05-10T11:40:00.668Z,35.1
2023-05-10T11:41:00.582Z,35.4
2023-05-10T11:42:00.610Z,35.1
2023-05-10T11:43:00.842Z,34.7
2023-05-10T11:44:01.626Z,34.9
2023-05-10T11:45:00.835Z,35.5
2023-05-10T11:46:00.669Z,35.5
2023-05-10T11:47:01.188Z,35.8
2023-05-10T11:48:01.198Z,36.3
2023-05-10T11:49:01.066Z,36.6
2023-05-10T11:50:00.635Z,36.5
2023-05-10T11:51:01.005Z,36.7
2023-05-10T11:52:08.310Z,36.0
2023-05-10T11:53:00.572Z,36.5
2023-05-10T11:54:00.588Z,37.4
2023-05-10T11:55:00.522Z,36.9
2023-05-10T11:56:05.249Z,37.0
2023-05-10T11:57:00.637Z,36.4
2023-05-10T11:58:01.165Z,37.2
2023-05-10T11:59:00.597Z,37.1
2023-05-10T12:00:00.600Z,37.6
2023-05-10T12:01:00.873Z,37.4
2023-05-10T12:02:00.698Z,37.8
2023-05-10T12:03:01.061Z,38.7
2023-05-10T12:04:01.249Z,39.3
2023-05-10T12:05:00.959Z,39.2
2023-05-10T12:06:00.772Z,39.0
2023-05-10T12:07:00.662Z,38.4
2023-05-10T12:08:10.443Z,38.6
2023-05-10T12:09:05.319Z,38.5
2023-05-10T12:10:03.984Z,37.8
2023-05-10T12:11:04.881Z,37.5
2023-05-10T12:12:02.155Z,38.3
2023-05-10T12:13:00.529Z,38.5
2023-05-10T12:14:04.025Z,38.4
2023-05-10T12:15:01.723Z,38.2
2023-05-10T12:16:10.451Z,38.2
2023-05-10T12:17:00.525Z,38.1
2023-05-10T12:18:00.564Z,37.8
2023-05-10T12:19:00.840Z,38.4
2023-05-10T12:20:10.450Z,38.4
2023-05-10T12:21:03.133Z,38.3
2023-05-10T12:22:04.217Z,38.0
2023-05-10T12:23:01.673Z,38.3
2023-05-10T12:24:02.889Z,38.7
2023-05-10T12:25:00.613Z,38.4
2023-05-10T12:26:02.486Z,37.6
2023-05-10T12:27:04.431Z,37.3
2023-05-10T12:28:03.002Z,36.9
2023-05-10T12:29:10.406Z,37.7
2023-05-10T12:30:00.536Z,38.2
2023-05-10T12:31:01.440Z,37.9
2023-05-10T12:32:00.616Z,38.0
2023-05-10T12:33:02.050Z,38.1
2023-05-10T12:34:00.595Z,38.0
2023-05-10T12:35:00.574Z,37.7
2023-05-10T12:36:00.544Z,37.5
2023-05-10T12:37:00.997Z,38.3
2023-05-10T12:38:00.554Z,37.9
2023-05-10T12:39:03.741Z,38.2
2023-05-10T12:40:00.659Z,38.8
2023-05-10T12:41:01.749Z,39.8
2023-05-10T12:42:00.566Z,40.0
2023-05-10T12:43:00.599Z,40.6
2023-05-10T12:44:00.539Z,40.2
2023-05-10T12:45:00.550Z,40.5
2023-05-10T12:46:08.042Z,40.6
2023-05-10T12:47:00.540Z,40.9
2023-05-10T12:48:00.657Z,41.5
2023-05-10T12:49:09.075Z,41.2
2023-05-10T12:50:01.317Z,41.7
2023-05-10T12:51:01.564Z,41.4
2023-05-10T12:52:00.580Z,40.3
2023-05-10T12:53:00.554Z,40.1
2023-05-10T12:54:00.535Z,39.3
2023-05-10T12:55:00.990Z,40.2
2023-05-10T12:56:00.593Z,39.4
2023-05-10T12:57:00.533Z,39.8
2023-05-10T12:58:00.624Z,40.7
2023-05-10T12:59:00.631Z,40.1
2023-05-10T13:00:00.666Z,39.0
2023-05-10T13:01:00.876Z,39.7
2023-05-10T13:02:00.749Z,39.4
2023-05-10T13:03:00.589Z,40.0
2023-05-10T13:04:00.557Z,40.4
2023-05-10T13:05:00.612Z,41.0
2023-05-10T13:06:00.551Z,41.2
2023-05-10T13:07:00.545Z,40.4
2023-05-10T13:08:00.678Z,39.9
2023-05-10T13:09:00.547Z,39.7
2023-05-10T13:10:00.578Z,40.3
2023-05-10T13:11:02.946Z,40.1
2023-05-10T13:12:00.609Z,39.9
2023-05-10T13:13:00.687Z,39.3
2023-05-10T13:14:00.539Z,39.0
2023-05-10T13:15:00.566Z,39.1
2023-05-10T13:16:00.558Z,38.6
2023-05-10T13:17:00.601Z,38.9
2023-05-10T13:18:00.598Z,39.2
2023-05-10T13:19:00.611Z,39.3
2023-05-10T13:20:00.595Z,39.0